createdAt,value
2023-01-23T00:00:19.183Z,43.53
2023-01-23T00:03:05.772Z,39.35
2023-01-23T00:06:05.660Z,45.30
2023-01-23T00:08:52.076Z,39.38
2023-01-23T00:11:38.671Z,41.35
2023-01-23T00:14:26.903Z,34.88
2023-01-23T00:17:12.991Z,33.90
2023-01-23T00:20:00.447Z,32.97
2023-01-23T00:22:46.204Z,34.67
2023-01-23T00:25:33.401Z,40.47
2023-01-23T00:28:18.724Z,34.22
2023-01-23T00:31:16.466Z,38.10
2023-01-23T00:34:06.667Z,36.10
2023-01-23T00:36:52.264Z,39.10
2023-01-23T00:39:38.154Z,30.35
2023-01-23T00:42:24.963Z,31.50
2023-01-23T00:45:11.655Z,28.27
2023-01-23T00:47:57.502Z,31.20
2023-01-23T00:50:43.431Z,30.45
2023-01-23T00:53:29.174Z,26.17
2023-01-23T00:56:16.223Z,28.25
2023-01-23T00:59:02.215Z,26.67
2023-01-23T01:01:49.377Z,27.52
2023-01-23T01:04:35.961Z,26.85
2023-01-23T01:07:22.069Z,26.25
2023-01-23T01:10:08.631Z,25.67
2023-01-23T01:12:57.662Z,27.75
2023-01-23T01:15:43.076Z,29.25
2023-01-23T01:18:29.555Z,25.73
2023-01-23T01:21:15.820Z,30.25
2023-01-23T01:24:01.361Z,25.45
2023-01-23T01:26:46.556Z,24.45
2023-01-23T01:29:33.554Z,26.15
2023-01-23T01:32:19.041Z,23.73
2023-01-23T01:35:07.045Z,23.27
2023-01-23T01:37:52.455Z,22.55
2023-01-23T01:40:38.212Z,25.30
2023-01-23T01:43:27.226Z,29.30
2023-01-23T01:46:33.250Z,24.52
2023-01-23T01:49:30.641Z,26.38
2023-01-23T01:52:17.102Z,25.55
2023-01-23T01:55:05.183Z,25.13
2023-01-23T01:57:54.306Z,21.30
2023-01-23T02:00:40.911Z,25.67
2023-01-23T02:03:26.534Z,25.30
2023-01-23T02:06:12.937Z,23.48
2023-01-23T02:08:58.568Z,22.38
2023-01-23T02:11:45.324Z,22.67
2023-01-23T02:14:31.110Z,29.05
2023-01-23T02:17:16.713Z,24.10
2023-01-23T02:20:23.199Z,22.05
2023-01-23T02:23:34.102Z,22.70
2023-01-23T02:26:29.485Z,23.45
2023-01-23T02:29:16.120Z,21.45
2023-01-23T02:32:01.528Z,23.65
2023-01-23T02:34:47.565Z,21.63
2023-01-23T02:37:34.506Z,18.65
2023-01-23T02:40:22.362Z,24.08
2023-01-23T02:43:11.235Z,20.15
2023-01-23T02:45:56.920Z,19.48
2023-01-23T02:48:44.366Z,22.80
2023-01-23T02:51:29.751Z,24.75
2023-01-23T02:54:15.760Z,17.80
2023-01-23T02:57:01.709Z,18.95
2023-01-23T03:00:05.595Z,17.35
2023-01-23T03:05:36.939Z,16.00
2023-01-23T03:08:22.598Z,15.38
2023-01-23T03:11:08.612Z,18.23
2023-01-23T03:13:54.300Z,15.13
2023-01-23T03:16:41.387Z,18.40
2023-01-23T03:19:27.246Z,18.17
2023-01-23T03:22:12.815Z,19.38
2023-01-23T03:24:58.801Z,19.63
2023-01-23T03:27:44.433Z,16.02
2023-01-23T03:30:29.970Z,17.77
2023-01-23T03:33:15.364Z,17.67
2023-01-23T03:36:01.179Z,15.50
2023-01-23T03:39:05.325Z,19.60
2023-01-23T03:41:51.281Z,18.00
2023-01-23T03:44:36.642Z,17.75
2023-01-23T03:47:21.871Z,18.33
2023-01-23T03:50:08.163Z,16.77
2023-01-23T03:52:53.525Z,22.55
2023-01-23T03:55:39.188Z,17.67
2023-01-23T03:58:24.480Z,15.65
2023-01-23T04:01:10.380Z,15.82
2023-01-23T04:03:55.874Z,17.48
2023-01-23T04:06:41.332Z,18.30
2023-01-23T04:09:28.092Z,18.23
2023-01-23T04:12:13.371Z,18.60
2023-01-23T04:14:58.664Z,16.85
2023-01-23T04:17:44.393Z,16.60
2023-01-23T04:20:29.690Z,19.05
2023-01-23T04:23:15.149Z,19.40
2023-01-23T04:26:00.673Z,17.17
2023-01-23T04:28:46.263Z,18.38
2023-01-23T04:31:31.979Z,17.80
2023-01-23T04:34:17.324Z,17.98
2023-01-23T04:37:02.864Z,17.48
2023-01-23T04:39:48.238Z,17.45
2023-01-23T04:42:33.855Z,18.17
2023-01-23T04:45:19.487Z,18.60
2023-01-23T04:48:05.137Z,17.83
2023-01-23T04:50:51.469Z,18.85
2023-01-23T04:53:36.962Z,16.60
2023-01-23T04:56:22.489Z,18.30
2023-01-23T04:59:41.593Z,15.93
2023-01-23T05:02:26.965Z,13.63
2023-01-23T05:05:12.745Z,16.70
2023-01-23T05:07:57.903Z,18.95
2023-01-23T05:10:44.138Z,18.20
2023-01-23T05:13:29.602Z,20.23
2023-01-23T05:16:15.309Z,16.98
2023-01-23T05:19:00.648Z,16.38
2023-01-23T05:21:46.209Z,16.25
2023-01-23T05:24:31.592Z,16.20
2023-01-23T05:27:17.314Z,19.02
2023-01-23T05:30:02.776Z,20.00
2023-01-23T05:32:48.802Z,18.45
2023-01-23T05:35:34.063Z,18.98
2023-01-23T05:38:19.527Z,21.00
2023-01-23T05:41:05.278Z,20.80
2023-01-23T05:43:50.889Z,21.38
2023-01-23T05:46:36.134Z,21.00
2023-01-23T05:49:21.714Z,24.20
2023-01-23T05:52:07.292Z,20.48
2023-01-23T05:54:52.942Z,18.05
2023-01-23T05:57:38.735Z,23.73
2023-01-23T06:00:24.382Z,21.13
2023-01-23T06:03:10.154Z,20.65
2023-01-23T06:05:55.655Z,25.23
2023-01-23T06:08:41.941Z,21.48
2023-01-23T06:11:27.159Z,23.48
2023-01-23T06:14:12.724Z,26.65
2023-01-23T06:16:58.337Z,25.15
2023-01-23T06:19:43.879Z,22.63
2023-01-23T06:22:31.441Z,26.10
2023-01-23T06:25:18.385Z,26.10
2023-01-23T06:28:04.310Z,25.60
2023-01-23T06:30:52.499Z,25.52
2023-01-23T06:33:39.060Z,27.05
2023-01-23T06:36:25.262Z,35.42
2023-01-23T06:39:15.429Z,26.60
2023-01-23T06:42:01.611Z,25.30
2023-01-23T06:44:47.261Z,28.30
2023-01-23T06:47:33.448Z,25.38
2023-01-23T06:50:19.368Z,24.70
2023-01-23T06:53:05.583Z,26.38
2023-01-23T06:55:51.033Z,31.08
2023-01-23T06:58:38.754Z,30.90
2023-01-23T07:01:24.505Z,31.45
2023-01-23T07:04:10.380Z,27.45
2023-01-23T07:06:55.990Z,31.27
2023-01-23T07:09:41.763Z,34.30
2023-01-23T07:12:27.805Z,30.30
2023-01-23T07:15:13.266Z,28.05
2023-01-23T07:18:01.929Z,33.85
2023-01-23T07:20:48.356Z,29.83
2023-01-23T07:23:34.493Z,27.08
2023-01-23T07:26:19.955Z,32.38
2023-01-23T07:29:07.040Z,31.85
2023-01-23T07:31:53.352Z,29.55
2023-01-23T07:34:39.364Z,29.35
2023-01-23T07:37:25.291Z,33.08
2023-01-23T07:40:11.811Z,108.22
2023-01-23T07:42:57.900Z,34.50
2023-01-23T07:45:43.564Z,28.00
2023-01-23T07:48:30.070Z,30.65
2023-01-23T07:51:15.604Z,29.80
2023-01-23T07:54:01.245Z,35.47
2023-01-23T07:56:49.877Z,34.65
2023-01-23T07:59:35.152Z,27.92
2023-01-23T08:02:20.624Z,30.38
2023-01-23T08:05:06.498Z,31.80
2023-01-23T08:07:57.919Z,32.28
2023-01-23T08:10:53.526Z,32.60
2023-01-23T08:13:39.874Z,32.58
2023-01-23T08:16:25.820Z,33.88
2023-01-23T08:19:11.436Z,37.28
2023-01-23T08:21:56.731Z,33.13
2023-01-23T08:24:42.545Z,31.27
2023-01-23T08:27:28.379Z,30.10
2023-01-23T08:30:14.195Z,32.25
2023-01-23T08:33:00.115Z,42.22
2023-01-23T08:35:54.307Z,32.67
2023-01-23T08:38:40.487Z,30.70
2023-01-23T08:41:26.225Z,32.42
2023-01-23T08:44:13.614Z,33.45
2023-01-23T08:46:59.053Z,28.95
2023-01-23T08:49:44.906Z,29.05
2023-01-23T08:52:31.161Z,36.38
2023-01-23T08:55:16.953Z,28.60
2023-01-23T08:58:02.851Z,30.20
2023-01-23T09:00:49.132Z,28.10
2023-01-23T09:03:34.699Z,33.42
2023-01-23T09:06:22.815Z,33.05
2023-01-23T09:09:08.274Z,30.42
2023-01-23T09:11:54.628Z,29.10
2023-01-23T09:14:40.437Z,30.90
2023-01-23T09:17:26.892Z,27.73
2023-01-23T09:20:12.801Z,24.38
2023-01-23T09:22:58.290Z,22.25
2023-01-23T09:25:44.102Z,24.33
2023-01-23T09:28:29.967Z,29.50
2023-01-23T09:31:15.953Z,24.63
2023-01-23T09:34:03.375Z,21.23
2023-01-23T09:36:48.795Z,23.02
2023-01-23T09:39:34.127Z,20.38
2023-01-23T09:42:22.704Z,22.58
2023-01-23T09:45:15.363Z,21.42
2023-01-23T09:48:24.200Z,19.88
2023-01-23T09:51:17.062Z,21.48
2023-01-23T09:54:26.775Z,22.02
2023-01-23T09:57:48.029Z,18.15
2023-01-23T10:00:34.394Z,20.52
2023-01-23T10:03:20.699Z,19.52
2023-01-23T10:06:20.003Z,20.98
2023-01-23T10:09:05.500Z,22.15
2023-01-23T10:12:29.400Z,24.27
2023-01-23T10:18:17.882Z,24.67
2023-01-23T10:21:29.878Z,22.60
2023-01-23T10:27:50.858Z,28.10
2023-01-23T10:30:38.592Z,27.90
2023-01-23T10:33:36.265Z,25.73
2023-01-23T10:36:42.052Z,28.08
2023-01-23T10:39:59.091Z,33.97
2023-01-23T10:42:44.843Z,32.10
2023-01-23T10:45:31.224Z,34.00
2023-01-23T10:48:46.550Z,38.45
2023-01-23T10:51:50.703Z,36.65
2023-01-23T10:54:46.909Z,36.13
2023-01-23T10:57:48.556Z,39.30
2023-01-23T11:00:37.775Z,39.95
2023-01-23T11:03:35.620Z,47.45
2023-01-23T11:06:26.051Z,46.05
2023-01-23T11:09:21.044Z,43.75
2023-01-23T11:12:14.445Z,46.47
2023-01-23T11:15:31.455Z,42.45
2023-01-23T11:18:51.897Z,44.03
2023-01-23T11:21:49.658Z,41.80
2023-01-23T11:24:41.225Z,48.28
2023-01-23T11:27:31.047Z,44.88
2023-01-23T11:30:44.901Z,47.00
2023-01-23T11:33:56.845Z,45.75
2023-01-23T11:36:45.602Z,43.40
2023-01-23T11:39:49.886Z,41.88
2023-01-23T11:42:40.661Z,47.38
2023-01-23T11:46:08.112Z,44.83
2023-01-23T11:48:59.554Z,53.13
2023-01-23T11:52:06.890Z,48.22
2023-01-23T11:55:28.841Z,45.92
2023-01-23T11:58:53.583Z,47.03
2023-01-23T12:05:15.426Z,42.78
2023-01-23T12:08:23.483Z,43.85
2023-01-23T12:11:13.890Z,41.85
2023-01-23T12:14:32.895Z,41.20
2023-01-23T12:17:35.808Z,41.95
2023-01-23T12:20:42.366Z,42.35
2023-01-23T12:23:50.139Z,41.92
2023-01-23T12:26:46.553Z,44.00
2023-01-23T12:30:12.681Z,45.85
2023-01-23T12:33:24.194Z,45.58
2023-01-23T12:36:44.425Z,47.90
2023-01-23T12:39:53.904Z,44.72
2023-01-23T12:42:59.629Z,47.70
2023-01-23T12:45:52.863Z,48.33
2023-01-23T12:48:52.073Z,52.17
2023-01-23T12:51:41.892Z,50.88
2023-01-23T12:54:40.817Z,51.72
2023-01-23T12:57:52.437Z,52.50
2023-01-23T13:01:11.467Z,52.00
2023-01-23T13:04:06.941Z,56.85
2023-01-23T13:07:08.143Z,59.85
2023-01-23T13:10:26.919Z,54.72
2023-01-23T13:13:12.519Z,57.67
2023-01-23T13:16:18.659Z,54.35
2023-01-23T13:19:41.656Z,54.42
2023-01-23T13:22:32.709Z,58.38
2023-01-23T13:25:20.024Z,60.65
2023-01-23T13:28:42.828Z,55.72
2023-01-23T13:31:46.932Z,56.00
2023-01-23T13:34:37.451Z,52.67
2023-01-23T13:37:51.310Z,60.38
2023-01-23T13:40:37.167Z,56.33
2023-01-23T13:43:43.375Z,56.15
2023-01-23T14:22:23.604Z,56.75
2023-01-23T14:25:18.545Z,55.97
2023-01-23T14:28:08.139Z,52.00
2023-01-23T14:31:02.433Z,47.60
2023-01-23T14:33:49.650Z,57.95
2023-01-23T14:36:38.054Z,41.25
2023-01-23T14:39:27.636Z,45.80
2023-01-23T14:42:23.633Z,47.17
2023-01-23T14:45:12.425Z,51.58
2023-01-23T14:48:05.577Z,32.65
2023-01-23T14:51:03.305Z,24.55
2023-01-23T14:53:54.608Z,19.73
2023-01-23T14:56:40.125Z,19.73
2023-01-23T14:59:31.154Z,22.13
2023-01-23T15:02:51.122Z,21.83
2023-01-23T15:05:39.740Z,30.90
2023-01-23T15:08:32.181Z,25.90
2023-01-23T15:11:26.143Z,24.25
2023-01-23T15:14:39.709Z,27.30
2023-01-23T15:17:25.313Z,29.60
2023-01-23T15:20:40.770Z,36.38
2023-01-23T15:23:37.138Z,31.58
2023-01-23T15:26:34.785Z,32.65
2023-01-23T15:29:21.505Z,28.85
2023-01-23T15:32:20.089Z,30.30
2023-01-23T15:35:26.300Z,30.25
2023-01-23T15:38:18.256Z,27.80
2023-01-23T15:41:09.477Z,26.25
2023-01-23T15:43:54.710Z,26.58
2023-01-23T15:46:40.347Z,28.30
2023-01-23T15:49:26.685Z,27.00
2023-01-23T15:52:46.323Z,25.38
2023-01-23T15:55:31.514Z,28.13
2023-01-23T15:58:17.141Z,24.10
2023-01-23T16:01:02.791Z,24.05
2023-01-23T16:03:48.315Z,27.52
2023-01-23T16:06:34.335Z,21.13
2023-01-23T16:09:30.630Z,25.55
2023-01-23T16:12:19.298Z,28.35
2023-01-23T16:15:17.897Z,35.80
2023-01-23T16:18:06.280Z,31.25
2023-01-23T16:20:51.830Z,34.85
2023-01-23T16:23:47.126Z,43.22
2023-01-23T16:26:34.413Z,52.45
2023-01-23T16:29:29.162Z,46.95
2023-01-23T16:32:14.989Z,49.50
2023-01-23T16:35:00.584Z,53.60
2023-01-23T16:37:48.793Z,55.22
2023-01-23T16:40:35.017Z,56.28
2023-01-23T16:43:21.765Z,57.85
2023-01-23T16:46:08.675Z,53.15
2023-01-23T16:48:56.515Z,55.85
2023-01-23T16:51:47.764Z,58.63
2023-01-23T16:54:33.472Z,59.28
2023-01-23T16:57:21.082Z,55.88
2023-01-23T17:00:08.363Z,59.05
2023-01-23T17:02:58.342Z,58.05
2023-01-23T17:05:43.777Z,56.30
2023-01-23T17:08:29.430Z,52.28
2023-01-23T17:11:36.324Z,56.22
2023-01-23T17:14:30.191Z,54.60
2023-01-23T17:17:27.782Z,58.42
2023-01-23T17:20:14.237Z,60.28
2023-01-23T17:22:59.939Z,57.95
2023-01-23T17:25:59.291Z,54.63
2023-01-23T17:28:45.905Z,62.15
2023-01-23T17:31:32.688Z,55.25
2023-01-23T17:34:27.315Z,65.65
2023-01-23T17:37:21.271Z,61.33
2023-01-23T17:40:10.445Z,55.35
2023-01-23T17:42:56.070Z,60.00
2023-01-23T17:45:43.817Z,55.20
2023-01-23T17:48:32.635Z,53.63
2023-01-23T17:51:20.025Z,52.20
2023-01-23T17:54:05.758Z,50.30
2023-01-23T17:56:51.027Z,49.83
2023-01-23T17:59:36.596Z,47.72
2023-01-23T18:02:31.306Z,46.25
2023-01-23T18:05:17.081Z,52.65
2023-01-23T18:08:02.365Z,43.28
2023-01-23T18:10:51.139Z,50.42
2023-01-23T18:14:04.763Z,50.65
2023-01-23T18:16:50.405Z,48.05
2023-01-23T18:19:36.191Z,47.10
2023-01-23T18:22:22.490Z,45.30
2023-01-23T18:25:16.399Z,47.90
2023-01-23T18:28:08.502Z,46.22
2023-01-23T18:30:59.909Z,45.38
2023-01-23T18:33:57.359Z,48.08
2023-01-23T18:36:58.222Z,48.20
2023-01-23T18:40:00.121Z,50.70
2023-01-23T18:42:55.452Z,45.72
2023-01-23T18:45:41.308Z,44.90
2023-01-23T18:48:28.019Z,48.60
2023-01-23T18:51:37.807Z,47.17
2023-01-23T18:54:51.185Z,44.28
2023-01-23T18:58:20.915Z,49.90
2023-01-23T19:01:18.755Z,55.70
2023-01-23T19:04:10.309Z,50.53
2023-01-23T19:06:57.737Z,47.85
2023-01-23T19:09:47.848Z,45.50
2023-01-23T19:12:54.261Z,52.30
2023-01-23T19:16:01.825Z,42.10
2023-01-23T19:19:15.630Z,82.32
2023-01-23T19:22:05.929Z,43.10
2023-01-23T19:24:52.192Z,40.13
2023-01-23T19:27:38.090Z,41.95
2023-01-23T19:30:26.464Z,36.88
2023-01-23T19:33:17.486Z,40.80
2023-01-23T19:36:04.101Z,41.53
2023-01-23T19:38:50.243Z,47.88
2023-01-23T19:41:45.936Z,47.17
2023-01-23T19:44:31.513Z,48.47
2023-01-23T19:47:16.687Z,43.85
2023-01-23T19:50:02.481Z,48.85
2023-01-23T19:52:49.927Z,58.90
2023-01-23T19:55:39.252Z,50.03
2023-01-23T19:58:24.574Z,45.53
2023-01-23T20:01:40.327Z,49.03
2023-01-23T20:04:26.417Z,56.03
2023-01-23T20:07:12.278Z,54.55
2023-01-23T20:09:57.885Z,59.90
2023-01-23T20:12:47.231Z,50.85
2023-01-23T20:15:33.822Z,50.85
2023-01-23T20:18:19.449Z,56.67
2023-01-23T20:21:05.306Z,52.08
2023-01-23T20:23:51.203Z,50.80
2023-01-23T20:26:37.366Z,52.15
2023-01-23T20:29:23.845Z,48.83
2023-01-23T20:32:09.192Z,50.03
2023-01-23T20:34:55.354Z,53.10
2023-01-23T20:37:40.763Z,46.78
2023-01-23T20:40:28.045Z,44.60
2023-01-23T20:43:13.495Z,47.10
2023-01-23T20:45:59.042Z,43.47
2023-01-23T20:48:45.495Z,45.92
2023-01-23T20:51:31.269Z,41.70
2023-01-23T20:54:17.014Z,44.80
2023-01-23T20:57:02.586Z,45.40
2023-01-23T20:59:48.620Z,43.75
2023-01-23T21:02:35.006Z,47.83
2023-01-23T21:05:20.771Z,42.75
2023-01-23T21:08:06.783Z,43.15
2023-01-23T21:10:53.146Z,39.53
2023-01-23T21:13:39.176Z,44.65
2023-01-23T21:16:24.798Z,44.05
2023-01-23T21:19:10.672Z,45.00
2023-01-23T21:21:56.520Z,47.53
2023-01-23T21:24:41.875Z,46.45
2023-01-23T21:27:27.724Z,43.47
2023-01-23T21:30:13.803Z,46.67
2023-01-23T21:32:59.480Z,46.60
2023-01-23T21:36:04.039Z,43.97
2023-01-23T21:38:51.334Z,45.25
2023-01-23T21:41:37.397Z,46.22
2023-01-23T21:44:22.979Z,41.83
2023-01-23T21:47:08.531Z,44.95
2023-01-23T21:49:54.074Z,40.17
2023-01-23T21:52:40.259Z,39.97
2023-01-23T21:55:25.519Z,40.40
2023-01-23T21:58:11.543Z,37.33
2023-01-23T22:01:30.599Z,38.80
2023-01-23T22:04:24.190Z,36.67
2023-01-23T22:07:09.972Z,40.13
2023-01-23T22:09:55.810Z,38.67
2023-01-23T22:12:41.360Z,41.90
2023-01-23T22:15:26.878Z,33.85
2023-01-23T22:18:12.767Z,36.90
2023-01-23T22:21:00.854Z,36.60
2023-01-23T22:23:46.177Z,38.92
2023-01-23T22:26:31.812Z,39.10
2023-01-23T22:29:17.516Z,42.08
2023-01-23T22:32:03.063Z,38.25
2023-01-23T22:34:48.898Z,34.40
2023-01-23T22:37:36.825Z,35.22
2023-01-23T22:40:22.799Z,34.03
2023-01-23T22:43:11.288Z,32.47
2023-01-23T22:46:09.129Z,32.08
2023-01-23T22:49:00.021Z,37.45
2023-01-23T22:51:46.084Z,34.58
2023-01-23T22:54:31.553Z,36.67
2023-01-23T22:57:17.174Z,37.15
2023-01-23T23:00:09.403Z,42.22
2023-01-23T23:02:54.889Z,34.38
2023-01-23T23:05:40.386Z,37.83
2023-01-23T23:08:26.266Z,34.92
2023-01-23T23:11:27.089Z,35.20
2023-01-23T23:14:12.443Z,30.83
2023-01-23T23:16:58.411Z,34.78
2023-01-23T23:19:43.911Z,32.03
2023-01-23T23:22:29.456Z,32.50
2023-01-23T23:25:14.834Z,33.50
2023-01-23T23:28:00.503Z,36.95
2023-01-23T23:30:46.196Z,31.77
2023-01-23T23:33:32.086Z,31.70
2023-01-23T23:36:17.927Z,34.35
2023-01-23T23:39:26.565Z,34.30
2023-01-23T23:42:12.349Z,34.10
2023-01-23T23:44:57.647Z,33.53
2023-01-23T23:47:43.438Z,38.13
2023-01-23T23:50:29.464Z,34.67
2023-01-23T23:53:15.474Z,31.25
2023-01-23T23:56:01.057Z,33.13
2023-01-23T23:58:46.456Z,31.70
